sensor_id;sensor_type;location;lat;lon;timestamp;P1;durP1;ratioP1;P2;durP2;ratioP2
24145;SDS011;12308;50.948;4.706;2022-07-23T00:00:52;26.70;;;19.27;;
24145;SDS011;12308;50.948;4.706;2022-07-23T00:03:18;25.77;;;17.80;;
24145;SDS011;12308;50.948;4.706;2022-07-23T00:05:43;29.35;;;19.02;;
24145;SDS011;12308;50.948;4.706;2022-07-23T00:08:09;31.70;;;19.75;;
24145;SDS011;12308;50.948;4.706;2022-07-23T00:10:35;36.78;;;21.85;;
24145;SDS011;12308;50.948;4.706;2022-07-23T00:13:01;28.88;;;19.50;;
24145;SDS011;12308;50.948;4.706;2022-07-23T00:15:26;32.92;;;20.15;;
24145;SDS011;12308;50.948;4.706;2022-07-23T00:17:52;30.00;;;18.35;;
24145;SDS011;12308;50.948;4.706;2022-07-23T00:20:18;30.05;;;19.00;;
24145;SDS011;12308;50.948;4.706;2022-07-23T00:25:16;30.67;;;20.88;;
24145;SDS011;12308;50.948;4.706;2022-07-23T00:27:42;33.83;;;20.20;;
24145;SDS011;12308;50.948;4.706;2022-07-23T00:30:08;29.45;;;18.73;;
24145;SDS011;12308;50.948;4.706;2022-07-23T00:32:48;30.95;;;20.23;;
24145;SDS011;12308;50.948;4.706;2022-07-23T00:35:15;31.70;;;20.05;;
24145;SDS011;12308;50.948;4.706;2022-07-23T00:37:41;33.28;;;20.00;;
24145;SDS011;12308;50.948;4.706;2022-07-23T00:40:07;32.15;;;19.83;;
24145;SDS011;12308;50.948;4.706;2022-07-23T00:42:34;30.67;;;20.38;;
24145;SDS011;12308;50.948;4.706;2022-07-23T00:44:59;30.20;;;20.00;;
24145;SDS011;12308;50.948;4.706;2022-07-23T00:47:25;30.25;;;19.40;;
24145;SDS011;12308;50.948;4.706;2022-07-23T00:49:51;25.48;;;18.38;;
24145;SDS011;12308;50.948;4.706;2022-07-23T00:52:16;22.77;;;17.35;;
24145;SDS011;12308;50.948;4.706;2022-07-23T00:54:42;23.05;;;16.85;;
24145;SDS011;12308;50.948;4.706;2022-07-23T00:57:08;28.23;;;18.63;;
24145;SDS011;12308;50.948;4.706;2022-07-23T00:59:34;34.58;;;19.75;;
24145;SDS011;12308;50.948;4.706;2022-07-23T01:02:00;32.40;;;20.98;;
24145;SDS011;12308;50.948;4.706;2022-07-23T01:04:26;35.20;;;21.48;;
24145;SDS011;12308;50.948;4.706;2022-07-23T01:06:51;29.27;;;20.63;;
24145;SDS011;12308;50.948;4.706;2022-07-23T01:09:17;30.88;;;21.27;;
24145;SDS011;12308;50.948;4.706;2022-07-23T01:11:43;33.88;;;20.67;;
24145;SDS011;12308;50.948;4.706;2022-07-23T01:14:10;33.10;;;19.15;;
24145;SDS011;12308;50.948;4.706;2022-07-23T01:16:36;28.30;;;19.73;;
24145;SDS011;12308;50.948;4.706;2022-07-23T01:19:02;31.45;;;19.65;;
24145;SDS011;12308;50.948;4.706;2022-07-23T01:21:31;30.60;;;21.25;;
24145;SDS011;12308;50.948;4.706;2022-07-23T01:24:23;27.30;;;19.23;;
24145;SDS011;12308;50.948;4.706;2022-07-23T01:26:49;30.27;;;20.17;;
24145;SDS011;12308;50.948;4.706;2022-07-23T01:29:15;30.65;;;19.30;;
24145;SDS011;12308;50.948;4.706;2022-07-23T01:31:42;34.30;;;20.10;;
24145;SDS011;12308;50.948;4.706;2022-07-23T01:34:08;33.25;;;19.58;;
24145;SDS011;12308;50.948;4.706;2022-07-23T01:36:35;28.23;;;19.52;;
24145;SDS011;12308;50.948;4.706;2022-07-23T01:39:02;29.95;;;19.02;;
24145;SDS011;12308;50.948;4.706;2022-07-23T01:41:29;29.55;;;19.35;;
24145;SDS011;12308;50.948;4.706;2022-07-23T01:43:55;29.13;;;19.77;;
24145;SDS011;12308;50.948;4.706;2022-07-23T01:46:21;32.75;;;19.60;;
24145;SDS011;12308;50.948;4.706;2022-07-23T01:48:46;34.25;;;19.13;;
24145;SDS011;12308;50.948;4.706;2022-07-23T01:51:12;29.00;;;19.15;;
24145;SDS011;12308;50.948;4.706;2022-07-23T01:53:38;30.88;;;20.20;;
24145;SDS011;12308;50.948;4.706;2022-07-23T01:56:03;32.58;;;20.38;;
24145;SDS011;12308;50.948;4.706;2022-07-23T01:58:30;34.13;;;20.55;;
24145;SDS011;12308;50.948;4.706;2022-07-23T02:00:56;27.27;;;18.52;;
24145;SDS011;12308;50.948;4.706;2022-07-23T02:03:22;28.35;;;18.98;;
24145;SDS011;12308;50.948;4.706;2022-07-23T02:05:48;35.40;;;20.70;;
24145;SDS011;12308;50.948;4.706;2022-07-23T02:08:14;30.63;;;20.10;;
24145;SDS011;12308;50.948;4.706;2022-07-23T02:10:40;27.05;;;18.17;;
24145;SDS011;12308;50.948;4.706;2022-07-23T02:13:06;31.95;;;18.80;;
24145;SDS011;12308;50.948;4.706;2022-07-23T02:15:32;32.25;;;17.83;;
24145;SDS011;12308;50.948;4.706;2022-07-23T02:17:58;30.10;;;18.38;;
24145;SDS011;12308;50.948;4.706;2022-07-23T02:20:24;27.90;;;18.00;;
24145;SDS011;12308;50.948;4.706;2022-07-23T02:22:49;26.50;;;19.05;;
24145;SDS011;12308;50.948;4.706;2022-07-23T02:25:15;25.90;;;18.88;;
24145;SDS011;12308;50.948;4.706;2022-07-23T02:27:41;30.77;;;19.73;;
24145;SDS011;12308;50.948;4.706;2022-07-23T02:30:07;28.98;;;19.98;;
24145;SDS011;12308;50.948;4.706;2022-07-23T02:32:34;27.73;;;18.98;;
24145;SDS011;12308;50.948;4.706;2022-07-23T02:35:00;27.65;;;18.88;;
24145;SDS011;12308;50.948;4.706;2022-07-23T02:37:26;26.70;;;19.30;;
24145;SDS011;12308;50.948;4.706;2022-07-23T02:39:52;31.85;;;19.48;;
24145;SDS011;12308;50.948;4.706;2022-07-23T02:42:18;37.50;;;21.88;;
24145;SDS011;12308;50.948;4.706;2022-07-23T02:44:44;24.73;;;17.77;;
24145;SDS011;12308;50.948;4.706;2022-07-23T02:47:10;35.10;;;21.25;;
24145;SDS011;12308;50.948;4.706;2022-07-23T02:49:35;31.00;;;20.05;;
24145;SDS011;12308;50.948;4.706;2022-07-23T02:52:01;35.42;;;21.75;;
24145;SDS011;12308;50.948;4.706;2022-07-23T02:54:27;35.03;;;20.10;;
24145;SDS011;12308;50.948;4.706;2022-07-23T02:56:53;30.25;;;20.13;;
24145;SDS011;12308;50.948;4.706;2022-07-23T02:59:19;28.08;;;19.00;;
24145;SDS011;12308;50.948;4.706;2022-07-23T03:01:44;27.48;;;19.52;;
24145;SDS011;12308;50.948;4.706;2022-07-23T03:04:11;33.65;;;20.42;;
24145;SDS011;12308;50.948;4.706;2022-07-23T03:06:37;37.25;;;19.40;;
24145;SDS011;12308;50.948;4.706;2022-07-23T03:09:03;35.75;;;20.17;;
24145;SDS011;12308;50.948;4.706;2022-07-23T03:11:29;29.58;;;20.50;;
24145;SDS011;12308;50.948;4.706;2022-07-23T03:13:55;35.75;;;20.95;;
24145;SDS011;12308;50.948;4.706;2022-07-23T03:16:21;35.08;;;20.02;;
24145;SDS011;12308;50.948;4.706;2022-07-23T03:18:46;29.48;;;19.33;;
24145;SDS011;12308;50.948;4.706;2022-07-23T03:21:12;33.70;;;22.17;;
24145;SDS011;12308;50.948;4.706;2022-07-23T03:23:38;34.65;;;20.95;;
24145;SDS011;12308;50.948;4.706;2022-07-23T03:26:04;37.38;;;21.95;;
24145;SDS011;12308;50.948;4.706;2022-07-23T03:28:30;34.50;;;22.40;;
24145;SDS011;12308;50.948;4.706;2022-07-23T03:30:56;33.95;;;21.83;;
24145;SDS011;12308;50.948;4.706;2022-07-23T03:33:22;30.35;;;19.85;;
24145;SDS011;12308;50.948;4.706;2022-07-23T03:35:47;34.03;;;21.63;;
24145;SDS011;12308;50.948;4.706;2022-07-23T03:38:13;30.27;;;18.75;;
24145;SDS011;12308;50.948;4.706;2022-07-23T03:40:39;29.63;;;19.90;;
24145;SDS011;12308;50.948;4.706;2022-07-23T03:43:05;26.00;;;17.85;;
24145;SDS011;12308;50.948;4.706;2022-07-23T03:45:31;35.80;;;20.92;;
24145;SDS011;12308;50.948;4.706;2022-07-23T03:47:57;29.63;;;19.30;;
24145;SDS011;12308;50.948;4.706;2022-07-23T03:50:23;28.15;;;19.23;;
24145;SDS011;12308;50.948;4.706;2022-07-23T03:52:49;36.60;;;21.05;;
24145;SDS011;12308;50.948;4.706;2022-07-23T03:55:15;37.72;;;20.90;;
24145;SDS011;12308;50.948;4.706;2022-07-23T03:57:41;35.95;;;21.70;;
24145;SDS011;12308;50.948;4.706;2022-07-23T04:00:08;33.03;;;20.25;;
24145;SDS011;12308;50.948;4.706;2022-07-23T04:02:36;33.33;;;20.88;;
24145;SDS011;12308;50.948;4.706;2022-07-23T04:05:03;32.47;;;21.48;;
24145;SDS011;12308;50.948;4.706;2022-07-23T04:07:29;33.83;;;21.15;;
24145;SDS011;12308;50.948;4.706;2022-07-23T04:09:55;32.00;;;20.17;;
24145;SDS011;12308;50.948;4.706;2022-07-23T04:12:21;29.80;;;20.85;;
24145;SDS011;12308;50.948;4.706;2022-07-23T04:14:46;29.50;;;20.27;;
24145;SDS011;12308;50.948;4.706;2022-07-23T04:17:12;36.88;;;22.27;;
24145;SDS011;12308;50.948;4.706;2022-07-23T04:19:38;33.35;;;19.83;;
24145;SDS011;12308;50.948;4.706;2022-07-23T04:22:08;31.27;;;19.98;;
24145;SDS011;12308;50.948;4.706;2022-07-23T04:24:34;33.15;;;21.02;;
24145;SDS011;12308;50.948;4.706;2022-07-23T04:27:00;37.88;;;23.58;;
24145;SDS011;12308;50.948;4.706;2022-07-23T04:29:25;35.65;;;21.95;;
24145;SDS011;12308;50.948;4.706;2022-07-23T04:31:51;35.85;;;20.75;;
24145;SDS011;12308;50.948;4.706;2022-07-23T04:34:17;37.53;;;22.05;;
24145;SDS011;12308;50.948;4.706;2022-07-23T04:36:43;27.90;;;19.77;;
24145;SDS011;12308;50.948;4.706;2022-07-23T04:39:08;35.75;;;22.67;;
24145;SDS011;12308;50.948;4.706;2022-07-23T04:41:34;39.45;;;24.20;;
24145;SDS011;12308;50.948;4.706;2022-07-23T04:44:00;41.95;;;24.55;;
24145;SDS011;12308;50.948;4.706;2022-07-23T04:46:26;34.78;;;23.48;;
24145;SDS011;12308;50.948;4.706;2022-07-23T04:48:53;40.33;;;24.80;;
24145;SDS011;12308;50.948;4.706;2022-07-23T04:51:18;41.28;;;25.05;;
24145;SDS011;12308;50.948;4.706;2022-07-23T04:53:44;41.80;;;24.33;;
24145;SDS011;12308;50.948;4.706;2022-07-23T04:56:10;38.97;;;23.65;;
24145;SDS011;12308;50.948;4.706;2022-07-23T04:58:35;39.80;;;23.10;;
24145;SDS011;12308;50.948;4.706;2022-07-23T05:01:01;32.33;;;22.80;;
24145;SDS011;12308;50.948;4.706;2022-07-23T05:03:27;36.80;;;24.33;;
24145;SDS011;12308;50.948;4.706;2022-07-23T05:05:53;41.13;;;23.70;;
24145;SDS011;12308;50.948;4.706;2022-07-23T05:08:19;39.45;;;25.38;;
24145;SDS011;12308;50.948;4.706;2022-07-23T05:10:45;38.80;;;24.60;;
24145;SDS011;12308;50.948;4.706;2022-07-23T05:13:11;41.22;;;26.55;;
24145;SDS011;12308;50.948;4.706;2022-07-23T05:15:37;44.50;;;25.77;;
24145;SDS011;12308;50.948;4.706;2022-07-23T05:18:02;42.58;;;25.98;;
24145;SDS011;12308;50.948;4.706;2022-07-23T05:20:28;38.58;;;24.73;;
24145;SDS011;12308;50.948;4.706;2022-07-23T05:22:54;39.83;;;25.38;;
24145;SDS011;12308;50.948;4.706;2022-07-23T05:25:20;44.05;;;26.52;;
24145;SDS011;12308;50.948;4.706;2022-07-23T05:27:45;44.55;;;25.55;;
24145;SDS011;12308;50.948;4.706;2022-07-23T05:30:11;44.95;;;28.23;;
24145;SDS011;12308;50.948;4.706;2022-07-23T05:32:37;42.33;;;27.23;;
24145;SDS011;12308;50.948;4.706;2022-07-23T05:35:04;45.20;;;28.90;;
24145;SDS011;12308;50.948;4.706;2022-07-23T05:37:30;41.60;;;28.13;;
24145;SDS011;12308;50.948;4.706;2022-07-23T05:40:00;47.58;;;28.08;;
24145;SDS011;12308;50.948;4.706;2022-07-23T05:42:31;43.22;;;28.25;;
24145;SDS011;12308;50.948;4.706;2022-07-23T05:44:57;46.65;;;29.00;;
24145;SDS011;12308;50.948;4.706;2022-07-23T05:47:22;45.05;;;29.27;;
24145;SDS011;12308;50.948;4.706;2022-07-23T05:49:48;48.30;;;29.85;;
24145;SDS011;12308;50.948;4.706;2022-07-23T05:52:14;47.03;;;29.17;;
24145;SDS011;12308;50.948;4.706;2022-07-23T05:54:40;42.85;;;27.20;;
24145;SDS011;12308;50.948;4.706;2022-07-23T05:57:06;43.42;;;27.02;;
24145;SDS011;12308;50.948;4.706;2022-07-23T05:59:32;40.08;;;25.95;;
24145;SDS011;12308;50.948;4.706;2022-07-23T06:01:58;36.63;;;24.38;;
24145;SDS011;12308;50.948;4.706;2022-07-23T06:04:23;37.97;;;24.55;;
24145;SDS011;12308;50.948;4.706;2022-07-23T06:06:49;31.83;;;23.70;;
24145;SDS011;12308;50.948;4.706;2022-07-23T06:09:15;38.22;;;23.95;;
24145;SDS011;12308;50.948;4.706;2022-07-23T06:11:40;37.15;;;23.17;;
24145;SDS011;12308;50.948;4.706;2022-07-23T06:14:06;36.28;;;23.85;;
24145;SDS011;12308;50.948;4.706;2022-07-23T06:16:32;34.40;;;24.08;;
24145;SDS011;12308;50.948;4.706;2022-07-23T06:18:58;33.63;;;23.13;;
24145;SDS011;12308;50.948;4.706;2022-07-23T06:21:23;32.67;;;22.45;;
24145;SDS011;12308;50.948;4.706;2022-07-23T06:23:49;35.65;;;22.95;;
24145;SDS011;12308;50.948;4.706;2022-07-23T06:26:14;30.70;;;21.75;;
24145;SDS011;12308;50.948;4.706;2022-07-23T06:28:40;30.25;;;22.20;;
24145;SDS011;12308;50.948;4.706;2022-07-23T06:31:06;30.25;;;22.30;;
24145;SDS011;12308;50.948;4.706;2022-07-23T06:33:32;32.45;;;21.48;;
24145;SDS011;12308;50.948;4.706;2022-07-23T06:35:58;30.77;;;21.67;;
24145;SDS011;12308;50.948;4.706;2022-07-23T06:38:24;32.90;;;21.60;;
24145;SDS011;12308;50.948;4.706;2022-07-23T06:40:50;33.38;;;21.83;;
24145;SDS011;12308;50.948;4.706;2022-07-23T06:43:16;34.03;;;23.17;;
24145;SDS011;12308;50.948;4.706;2022-07-23T06:45:42;31.92;;;22.88;;
24145;SDS011;12308;50.948;4.706;2022-07-23T06:48:07;35.80;;;22.83;;
24145;SDS011;12308;50.948;4.706;2022-07-23T06:50:33;34.88;;;23.13;;
24145;SDS011;12308;50.948;4.706;2022-07-23T06:52:59;31.35;;;22.73;;
24145;SDS011;12308;50.948;4.706;2022-07-23T06:55:25;35.35;;;21.52;;
24145;SDS011;12308;50.948;4.706;2022-07-23T06:57:51;37.63;;;24.17;;
24145;SDS011;12308;50.948;4.706;2022-07-23T07:00:16;30.95;;;22.55;;
24145;SDS011;12308;50.948;4.706;2022-07-23T07:02:42;40.72;;;24.25;;
24145;SDS011;12308;50.948;4.706;2022-07-23T07:05:08;35.08;;;23.75;;
24145;SDS011;12308;50.948;4.706;2022-07-23T07:07:34;37.00;;;26.48;;
24145;SDS011;12308;50.948;4.706;2022-07-23T07:10:00;32.83;;;25.88;;
24145;SDS011;12308;50.948;4.706;2022-07-23T07:12:27;37.22;;;26.25;;
24145;SDS011;12308;50.948;4.706;2022-07-23T07:14:53;37.28;;;24.02;;
24145;SDS011;12308;50.948;4.706;2022-07-23T07:17:18;34.00;;;24.48;;
24145;SDS011;12308;50.948;4.706;2022-07-23T07:19:44;35.00;;;25.15;;
24145;SDS011;12308;50.948;4.706;2022-07-23T07:22:10;35.78;;;24.55;;
24145;SDS011;12308;50.948;4.706;2022-07-23T07:24:35;35.25;;;23.70;;
24145;SDS011;12308;50.948;4.706;2022-07-23T07:27:01;34.08;;;23.13;;
24145;SDS011;12308;50.948;4.706;2022-07-23T07:29:27;37.78;;;21.58;;
24145;SDS011;12308;50.948;4.706;2022-07-23T07:31:53;35.00;;;23.40;;
24145;SDS011;12308;50.948;4.706;2022-07-23T07:34:19;36.53;;;23.63;;
24145;SDS011;12308;50.948;4.706;2022-07-23T07:36:45;35.45;;;24.20;;
24145;SDS011;12308;50.948;4.706;2022-07-23T07:39:10;35.33;;;24.00;;
24145;SDS011;12308;50.948;4.706;2022-07-23T07:41:36;30.67;;;21.38;;
24145;SDS011;12308;50.948;4.706;2022-07-23T07:44:02;29.00;;;20.67;;
24145;SDS011;12308;50.948;4.706;2022-07-23T07:46:28;29.45;;;21.73;;
24145;SDS011;12308;50.948;4.706;2022-07-23T07:48:53;27.85;;;19.92;;
24145;SDS011;12308;50.948;4.706;2022-07-23T07:51:19;29.02;;;20.35;;
24145;SDS011;12308;50.948;4.706;2022-07-23T07:53:45;29.27;;;19.70;;
24145;SDS011;12308;50.948;4.706;2022-07-23T07:56:10;30.33;;;20.38;;
24145;SDS011;12308;50.948;4.706;2022-07-23T07:58:36;29.77;;;19.95;;
24145;SDS011;12308;50.948;4.706;2022-07-23T08:01:02;31.83;;;19.45;;
24145;SDS011;12308;50.948;4.706;2022-07-23T08:03:28;30.95;;;21.02;;
24145;SDS011;12308;50.948;4.706;2022-07-23T08:05:54;29.63;;;18.58;;
24145;SDS011;12308;50.948;4.706;2022-07-23T08:08:20;26.98;;;18.70;;
24145;SDS011;12308;50.948;4.706;2022-07-23T08:10:45;33.63;;;17.90;;
24145;SDS011;12308;50.948;4.706;2022-07-23T08:13:12;25.63;;;18.00;;
24145;SDS011;12308;50.948;4.706;2022-07-23T08:15:42;23.57;;;16.60;;
24145;SDS011;12308;50.948;4.706;2022-07-23T08:18:08;24.50;;;16.00;;
24145;SDS011;12308;50.948;4.706;2022-07-23T08:20:34;22.58;;;14.23;;
24145;SDS011;12308;50.948;4.706;2022-07-23T08:23:04;23.00;;;16.45;;
24145;SDS011;12308;50.948;4.706;2022-07-23T08:25:32;28.45;;;16.33;;
24145;SDS011;12308;50.948;4.706;2022-07-23T08:28:00;27.48;;;15.73;;
24145;SDS011;12308;50.948;4.706;2022-07-23T08:30:27;24.77;;;15.25;;
24145;SDS011;12308;50.948;4.706;2022-07-23T08:32:54;20.92;;;12.07;;
24145;SDS011;12308;50.948;4.706;2022-07-23T08:35:22;21.08;;;14.70;;
24145;SDS011;12308;50.948;4.706;2022-07-23T08:38:10;23.77;;;12.57;;
24145;SDS011;12308;50.948;4.706;2022-07-23T08:40:38;17.15;;;10.82;;
24145;SDS011;12308;50.948;4.706;2022-07-23T08:43:07;19.58;;;9.30;;
24145;SDS011;12308;50.948;4.706;2022-07-23T08:45:36;17.92;;;9.70;;
24145;SDS011;12308;50.948;4.706;2022-07-23T08:48:04;17.33;;;10.82;;
24145;SDS011;12308;50.948;4.706;2022-07-23T08:50:32;17.63;;;10.13;;
24145;SDS011;12308;50.948;4.706;2022-07-23T08:52:59;18.02;;;10.85;;
24145;SDS011;12308;50.948;4.706;2022-07-23T08:55:26;21.23;;;10.82;;
24145;SDS011;12308;50.948;4.706;2022-07-23T08:57:52;20.60;;;10.32;;
24145;SDS011;12308;50.948;4.706;2022-07-23T09:00:19;21.50;;;12.35;;
24145;SDS011;12308;50.948;4.706;2022-07-23T09:02:46;21.48;;;12.15;;
24145;SDS011;12308;50.948;4.706;2022-07-23T09:05:14;18.15;;;10.95;;
24145;SDS011;12308;50.948;4.706;2022-07-23T09:10:48;17.75;;;10.75;;
24145;SDS011;12308;50.948;4.706;2022-07-23T09:15:53;15.48;;;10.00;;
24145;SDS011;12308;50.948;4.706;2022-07-23T09:18:36;16.30;;;10.57;;
24145;SDS011;12308;50.948;4.706;2022-07-23T09:21:10;18.88;;;10.10;;
24145;SDS011;12308;50.948;4.706;2022-07-23T09:23:40;16.83;;;10.23;;
24145;SDS011;12308;50.948;4.706;2022-07-23T09:26:17;15.68;;;10.52;;
24145;SDS011;12308;50.948;4.706;2022-07-23T09:31:42;15.65;;;10.10;;
24145;SDS011;12308;50.948;4.706;2022-07-23T09:34:09;15.20;;;10.23;;
24145;SDS011;12308;50.948;4.706;2022-07-23T09:36:56;18.70;;;10.15;;
24145;SDS011;12308;50.948;4.706;2022-07-23T09:39:33;13.90;;;8.82;;
24145;SDS011;12308;50.948;4.706;2022-07-23T09:42:44;18.10;;;10.02;;
24145;SDS011;12308;50.948;4.706;2022-07-23T09:44:49;14.10;;;8.48;;
24145;SDS011;12308;50.948;4.706;2022-07-23T09:47:20;14.50;;;8.73;;
24145;SDS011;12308;50.948;4.706;2022-07-23T09:50:09;14.80;;;9.18;;
24145;SDS011;12308;50.948;4.706;2022-07-23T09:55:13;11.43;;;8.00;;
24145;SDS011;12308;50.948;4.706;2022-07-23T09:57:43;13.82;;;8.25;;
24145;SDS011;12308;50.948;4.706;2022-07-23T10:00:10;10.57;;;7.68;;
24145;SDS011;12308;50.948;4.706;2022-07-23T10:02:37;9.75;;;6.60;;
24145;SDS011;12308;50.948;4.706;2022-07-23T10:05:04;16.13;;;7.22;;
24145;SDS011;12308;50.948;4.706;2022-07-23T10:07:34;15.18;;;7.30;;
24145;SDS011;12308;50.948;4.706;2022-07-23T10:10:05;13.55;;;7.20;;
24145;SDS011;12308;50.948;4.706;2022-07-23T10:12:31;9.75;;;6.53;;
24145;SDS011;12308;50.948;4.706;2022-07-23T10:15:00;7.15;;;5.45;;
24145;SDS011;12308;50.948;4.706;2022-07-23T10:17:29;8.30;;;5.57;;
24145;SDS011;12308;50.948;4.706;2022-07-23T10:19:55;12.35;;;6.68;;
24145;SDS011;12308;50.948;4.706;2022-07-23T10:22:31;10.68;;;5.78;;
24145;SDS011;12308;50.948;4.706;2022-07-23T10:38:52;8.80;;;5.10;;
24145;SDS011;12308;50.948;4.706;2022-07-23T10:41:40;8.02;;;5.03;;
24145;SDS011;12308;50.948;4.706;2022-07-23T10:46:32;9.70;;;4.97;;
24145;SDS011;12308;50.948;4.706;2022-07-23T10:54:42;10.05;;;5.20;;
24145;SDS011;12308;50.948;4.706;2022-07-23T10:57:12;8.27;;;4.45;;
24145;SDS011;12308;50.948;4.706;2022-07-23T11:02:34;7.20;;;4.20;;
24145;SDS011;12308;50.948;4.706;2022-07-23T11:05:04;5.38;;;3.70;;
24145;SDS011;12308;50.948;4.706;2022-07-23T11:07:32;7.97;;;4.72;;
24145;SDS011;12308;50.948;4.706;2022-07-23T11:09:58;8.57;;;4.10;;
24145;SDS011;12308;50.948;4.706;2022-07-23T11:20:17;4.80;;;3.17;;
24145;SDS011;12308;50.948;4.706;2022-07-23T11:22:48;5.28;;;3.00;;
24145;SDS011;12308;50.948;4.706;2022-07-23T11:27:46;5.28;;;2.95;;
24145;SDS011;12308;50.948;4.706;2022-07-23T11:32:51;2.50;;;1.98;;
24145;SDS011;12308;50.948;4.706;2022-07-23T11:35:27;1.95;;;1.70;;
24145;SDS011;12308;50.948;4.706;2022-07-23T11:37:54;3.33;;;2.30;;
24145;SDS011;12308;50.948;4.706;2022-07-23T11:40:38;5.00;;;2.63;;
24145;SDS011;12308;50.948;4.706;2022-07-23T11:43:06;4.70;;;3.05;;
24145;SDS011;12308;50.948;4.706;2022-07-23T11:48:07;3.67;;;2.58;;
24145;SDS011;12308;50.948;4.706;2022-07-23T11:50:35;7.35;;;2.83;;
24145;SDS011;12308;50.948;4.706;2022-07-23T11:53:02;4.15;;;2.70;;
24145;SDS011;12308;50.948;4.706;2022-07-23T11:55:28;5.47;;;2.65;;
24145;SDS011;12308;50.948;4.706;2022-07-23T11:57:54;5.95;;;2.83;;
24145;SDS011;12308;50.948;4.706;2022-07-23T12:00:21;4.00;;;2.35;;
24145;SDS011;12308;50.948;4.706;2022-07-23T12:02:50;6.00;;;2.63;;
24145;SDS011;12308;50.948;4.706;2022-07-23T12:05:19;3.80;;;2.60;;
24145;SDS011;12308;50.948;4.706;2022-07-23T12:07:48;2.80;;;2.50;;
24145;SDS011;12308;50.948;4.706;2022-07-23T12:10:16;3.50;;;2.60;;
24145;SDS011;12308;50.948;4.706;2022-07-23T12:12:43;3.85;;;2.90;;
24145;SDS011;12308;50.948;4.706;2022-07-23T12:15:22;7.13;;;3.33;;
24145;SDS011;12308;50.948;4.706;2022-07-23T12:17:52;5.90;;;3.50;;
24145;SDS011;12308;50.948;4.706;2022-07-23T12:20:22;7.13;;;2.78;;
24145;SDS011;12308;50.948;4.706;2022-07-23T12:22:52;4.72;;;3.45;;
24145;SDS011;12308;50.948;4.706;2022-07-23T12:25:23;4.97;;;3.28;;
24145;SDS011;12308;50.948;4.706;2022-07-23T12:28:01;4.68;;;3.20;;
24145;SDS011;12308;50.948;4.706;2022-07-23T12:30:39;6.80;;;3.08;;
24145;SDS011;12308;50.948;4.706;2022-07-23T12:33:05;3.17;;;2.78;;
24145;SDS011;12308;50.948;4.706;2022-07-23T12:35:42;4.25;;;3.08;;
24145;SDS011;12308;50.948;4.706;2022-07-23T12:38:11;4.43;;;3.42;;
24145;SDS011;12308;50.948;4.706;2022-07-23T12:40:45;7.75;;;4.15;;
24145;SDS011;12308;50.948;4.706;2022-07-23T12:43:19;5.18;;;3.60;;
24145;SDS011;12308;50.948;4.706;2022-07-23T12:48:27;6.82;;;3.50;;
24145;SDS011;12308;50.948;4.706;2022-07-23T12:55:57;6.03;;;4.35;;
24145;SDS011;12308;50.948;4.706;2022-07-23T13:04:08;5.15;;;3.45;;
24145;SDS011;12308;50.948;4.706;2022-07-23T13:09:06;7.60;;;3.78;;
24145;SDS011;12308;50.948;4.706;2022-07-23T13:11:34;3.90;;;3.42;;
24145;SDS011;12308;50.948;4.706;2022-07-23T13:14:00;5.68;;;3.90;;
24145;SDS011;12308;50.948;4.706;2022-07-23T13:16:29;7.18;;;4.10;;
24145;SDS011;12308;50.948;4.706;2022-07-23T13:18:57;11.07;;;4.22;;
24145;SDS011;12308;50.948;4.706;2022-07-23T13:21:24;6.03;;;4.13;;
24145;SDS011;12308;50.948;4.706;2022-07-23T13:23:50;5.22;;;3.92;;
24145;SDS011;12308;50.948;4.706;2022-07-23T13:26:17;4.90;;;4.00;;
24145;SDS011;12308;50.948;4.706;2022-07-23T13:28:43;5.07;;;3.63;;
24145;SDS011;12308;50.948;4.706;2022-07-23T13:31:09;10.18;;;4.18;;
24145;SDS011;12308;50.948;4.706;2022-07-23T13:33:35;5.25;;;3.92;;
24145;SDS011;12308;50.948;4.706;2022-07-23T13:36:01;8.93;;;4.65;;
24145;SDS011;12308;50.948;4.706;2022-07-23T13:38:27;6.20;;;4.72;;
24145;SDS011;12308;50.948;4.706;2022-07-23T13:40:53;5.88;;;4.60;;
24145;SDS011;12308;50.948;4.706;2022-07-23T13:43:20;6.28;;;4.60;;
24145;SDS011;12308;50.948;4.706;2022-07-23T13:45:47;7.50;;;4.90;;
24145;SDS011;12308;50.948;4.706;2022-07-23T13:48:14;6.70;;;4.00;;
24145;SDS011;12308;50.948;4.706;2022-07-23T13:50:41;4.97;;;4.40;;
24145;SDS011;12308;50.948;4.706;2022-07-23T13:53:09;8.35;;;4.60;;
24145;SDS011;12308;50.948;4.706;2022-07-23T13:55:37;5.88;;;4.80;;
24145;SDS011;12308;50.948;4.706;2022-07-23T13:58:04;8.48;;;4.90;;
24145;SDS011;12308;50.948;4.706;2022-07-23T14:00:31;4.80;;;4.30;;
24145;SDS011;12308;50.948;4.706;2022-07-23T14:02:58;6.65;;;4.40;;
24145;SDS011;12308;50.948;4.706;2022-07-23T14:05:24;5.63;;;4.72;;
24145;SDS011;12308;50.948;4.706;2022-07-23T14:07:50;8.35;;;4.50;;
24145;SDS011;12308;50.948;4.706;2022-07-23T14:10:17;6.18;;;4.38;;
24145;SDS011;12308;50.948;4.706;2022-07-23T14:12:45;8.25;;;4.35;;
24145;SDS011;12308;50.948;4.706;2022-07-23T14:15:12;6.70;;;4.50;;
24145;SDS011;12308;50.948;4.706;2022-07-23T14:17:39;7.35;;;4.63;;
24145;SDS011;12308;50.948;4.706;2022-07-23T14:20:06;7.93;;;4.47;;
24145;SDS011;12308;50.948;4.706;2022-07-23T14:22:33;7.93;;;4.93;;
24145;SDS011;12308;50.948;4.706;2022-07-23T14:24:59;8.05;;;4.47;;
24145;SDS011;12308;50.948;4.706;2022-07-23T14:27:26;6.05;;;4.57;;
24145;SDS011;12308;50.948;4.706;2022-07-23T14:29:53;10.30;;;4.82;;
24145;SDS011;12308;50.948;4.706;2022-07-23T14:32:19;5.40;;;4.13;;
24145;SDS011;12308;50.948;4.706;2022-07-23T14:34:46;7.45;;;4.47;;
24145;SDS011;12308;50.948;4.706;2022-07-23T14:37:12;5.93;;;4.05;;
24145;SDS011;12308;50.948;4.706;2022-07-23T14:39:38;6.95;;;5.40;;
24145;SDS011;12308;50.948;4.706;2022-07-23T14:42:05;7.65;;;5.00;;
24145;SDS011;12308;50.948;4.706;2022-07-23T14:44:31;6.60;;;5.05;;
24145;SDS011;12308;50.948;4.706;2022-07-23T14:46:58;5.78;;;5.15;;
24145;SDS011;12308;50.948;4.706;2022-07-23T14:49:25;6.35;;;5.00;;
24145;SDS011;12308;50.948;4.706;2022-07-23T14:51:51;9.48;;;5.03;;
24145;SDS011;12308;50.948;4.706;2022-07-23T14:54:17;8.98;;;5.57;;
24145;SDS011;12308;50.948;4.706;2022-07-23T14:56:44;5.80;;;4.82;;
24145;SDS011;12308;50.948;4.706;2022-07-23T14:59:11;7.18;;;4.63;;
24145;SDS011;12308;50.948;4.706;2022-07-23T15:01:37;5.53;;;4.88;;
24145;SDS011;12308;50.948;4.706;2022-07-23T15:04:04;7.55;;;4.88;;
24145;SDS011;12308;50.948;4.706;2022-07-23T15:06:30;11.73;;;4.85;;
24145;SDS011;12308;50.948;4.706;2022-07-23T15:08:55;9.05;;;5.53;;
24145;SDS011;12308;50.948;4.706;2022-07-23T15:11:21;6.50;;;5.35;;
24145;SDS011;12308;50.948;4.706;2022-07-23T15:13:47;6.97;;;5.45;;
24145;SDS011;12308;50.948;4.706;2022-07-23T15:16:13;9.38;;;5.45;;
24145;SDS011;12308;50.948;4.706;2022-07-23T15:18:39;10.57;;;5.00;;
24145;SDS011;12308;50.948;4.706;2022-07-23T15:21:05;11.30;;;5.80;;
24145;SDS011;12308;50.948;4.706;2022-07-23T15:23:31;7.28;;;5.28;;
24145;SDS011;12308;50.948;4.706;2022-07-23T15:25:57;7.35;;;5.55;;
24145;SDS011;12308;50.948;4.706;2022-07-23T15:28:23;8.90;;;5.55;;
24145;SDS011;12308;50.948;4.706;2022-07-23T15:30:49;11.13;;;5.65;;
24145;SDS011;12308;50.948;4.706;2022-07-23T15:33:17;9.40;;;5.47;;
24145;SDS011;12308;50.948;4.706;2022-07-23T15:35:43;8.85;;;5.40;;
24145;SDS011;12308;50.948;4.706;2022-07-23T15:38:09;8.95;;;5.40;;
24145;SDS011;12308;50.948;4.706;2022-07-23T15:40:35;6.63;;;5.40;;